Decatur, Illinois
Current Conditions -  °F | °C
As of 11:24 AM on Monday 22 Dec 2014 (Local Time) from KDEC Reporting Station
Light Rain Light Rain  
Wind Chill:   Ceiling: 400
Heat Index:   Visibility: 2mi
Dew Point:   Wind: 15mph
Humidity: 100%   Direction: 140°SE
Pressure: 29.74"   Gusts: NA
Location:  39.85°N, 88.95°W
Report Text: KDEC 221724Z 14013KT 2SM -RA BR OVC004 04/04 A2974 RMK AO2 P0003 T00440044
Loading
Personal Weather Stations






























Interactive Weather Map New forecast layout! Learn more

10-Day Weather Forecast

Advertisements
Track Severe Weather on mobile